Terminal Aerodrome Forecast
Issued by NWS

Home | Current Version | Previous Version | Text Only | Print | Product List | Glossary On
Versions: 1 2 3 4 5 6 7 8 9 10 11 12 13 14 15 16
000
FTUS44 KLZK 221100
TAFADF
TAF
KADF 221121Z 2212/2312 14004KT P6SM VCSH BKN012 OVC020
      TEMPO 2212/2216 5SM -RADZ BR BKN006
     FM221600 18008KT P6SM VCSH SCT008 OVC012
      TEMPO 2216/2220 BKN008
     FM230300 28007KT P6SM SCT015 BKN025
     FM230600 VRB05KT P6SM SCT025 BKN250=

USA.gov is the U.S. government's official web portal to all federal, state and local government web resources and services.